Time;durP1;ratioP1;P1;durP2;ratioP2;P2;SDS_P1;SDS_P2;PMS_P1;PMS_P2;Temp;Humidity;BMP_temperature;BMP_pressure;BME280_temperature;BME280_humidity;BME280_pressure;Samples;Min_cycle;Max_cycle;Signal;HPM_P1;HPM_P2
2022/01/05 00:00:42;;;;;;;12.80;12.10;;;5.40;99.90;;;;;;5052309;28;20208;-76
2022/01/05 00:03:09;;;;;;;12.60;12.00;;;5.40;99.90;;;;;;5057551;28;20227;-76
2022/01/05 00:05:38;;;;;;;12.93;12.23;;;5.50;99.90;;;;;;5060528;28;20244;-76
2022/01/05 00:08:05;;;;;;;13.37;12.67;;;5.50;99.90;;;;;;5058929;28;20599;-77
2022/01/05 00:10:32;;;;;;;11.67;11.07;;;5.50;99.90;;;;;;5059752;28;20195;-76
2022/01/05 00:12:59;;;;;;;12.90;12.30;;;5.60;99.90;;;;;;5058820;28;20223;-76
2022/01/05 00:15:27;;;;;;;12.90;12.23;;;5.60;99.90;;;;;;5062068;28;20194;-76
2022/01/05 00:17:54;;;;;;;13.17;12.37;;;5.60;99.90;;;;;;5059126;28;20200;-76
2022/01/05 00:20:21;;;;;;;12.37;11.77;;;5.60;99.90;;;;;;5061005;28;20550;-76
2022/01/05 00:22:49;;;;;;;12.60;12.00;;;5.60;99.90;;;;;;5058918;28;20688;-76
2022/01/05 00:25:15;;;;;;;12.80;12.07;;;5.60;99.90;;;;;;5055837;28;20203;-76
2022/01/05 00:27:42;;;;;;;12.60;11.90;;;5.70;99.90;;;;;;5057762;28;20207;-76
2022/01/05 00:30:10;;;;;;;12.50;11.90;;;5.60;99.90;;;;;;5058799;28;20608;-76
2022/01/05 00:32:37;;;;;;;12.50;11.90;;;5.70;99.90;;;;;;5045832;28;20222;-76
2022/01/05 00:35:05;;;;;;;12.57;11.87;;;5.70;99.90;;;;;;5055100;28;20195;-76
2022/01/05 00:37:32;;;;;;;12.70;12.10;;;5.70;99.90;;;;;;5058984;28;20183;-76
2022/01/05 00:40:00;;;;;;;12.40;11.80;;;5.70;99.90;;;;;;5059345;28;20191;-76
2022/01/05 00:42:27;;;;;;;12.40;11.80;;;5.80;99.90;;;;;;5058535;28;20682;-76
2022/01/05 00:44:54;;;;;;;12.33;11.73;;;5.80;99.90;;;;;;5071316;28;20624;-76
2022/01/05 00:47:21;;;;;;;12.40;11.80;;;5.80;99.90;;;;;;5060939;28;20691;-76
2022/01/05 00:49:48;;;;;;;12.30;11.57;;;5.80;99.90;;;;;;5057994;28;20635;-76
2022/01/05 00:52:14;;;;;;;12.47;11.87;;;5.80;99.90;;;;;;5053397;28;20206;-76
2022/01/05 00:54:41;;;;;;;12.20;11.60;;;5.80;99.90;;;;;;5063371;28;20211;-76
2022/01/05 00:57:10;;;;;;;12.27;11.67;;;5.80;99.90;;;;;;5060834;28;20213;-76
2022/01/05 00:59:36;;;;;;;11.80;11.10;;;5.80;99.90;;;;;;5058886;28;20193;-76
2022/01/05 01:02:03;;;;;;;11.83;11.23;;;5.80;99.90;;;;;;5055904;28;20703;-76
2022/01/05 01:04:30;;;;;;;11.87;11.27;;;5.80;99.90;;;;;;5059537;28;20649;-76
2022/01/05 01:06:57;;;;;;;12.07;11.47;;;5.80;99.90;;;;;;5055471;28;20203;-76
2022/01/05 01:09:24;;;;;;;11.87;11.27;;;5.80;99.90;;;;;;5062000;28;20194;-76
2022/01/05 01:11:51;;;;;;;12.20;11.60;;;5.80;99.90;;;;;;5058272;28;20554;-76
2022/01/05 01:14:20;;;;;;;12.00;11.40;;;5.80;99.90;;;;;;5066650;28;20229;-76
2022/01/05 01:16:46;;;;;;;12.03;11.43;;;5.90;99.90;;;;;;5057592;28;20244;-76
2022/01/05 01:19:14;;;;;;;12.40;11.80;;;5.90;99.90;;;;;;5063164;28;20190;-76
2022/01/05 01:21:40;;;;;;;11.90;11.30;;;5.90;99.90;;;;;;5058116;28;20652;-76
2022/01/05 01:24:07;;;;;;;11.17;10.57;;;5.90;99.90;;;;;;5068924;28;20215;-76
2022/01/05 01:26:34;;;;;;;11.17;10.57;;;5.90;99.90;;;;;;5058422;28;20199;-76
2022/01/05 01:29:02;;;;;;;10.17;9.67;;;6.00;99.90;;;;;;5059379;28;20302;-76
2022/01/05 01:31:30;;;;;;;10.97;10.37;;;6.00;99.90;;;;;;5052729;28;20223;-76
2022/01/05 01:33:57;;;;;;;10.43;9.70;;;6.00;99.90;;;;;;5062604;28;20210;-76
2022/01/05 01:36:27;;;;;;;9.90;9.40;;;6.00;99.90;;;;;;5062094;28;20188;-76
2022/01/05 01:38:54;;;;;;;8.80;8.30;;;6.00;99.90;;;;;;5060525;28;20655;-76
2022/01/05 01:41:20;;;;;;;7.83;7.33;;;6.10;99.90;;;;;;5063964;28;20190;-76
2022/01/05 01:43:47;;;;;;;7.50;7.00;;;6.10;99.90;;;;;;5057188;28;20223;-76
2022/01/05 01:46:14;;;;;;;7.43;7.03;;;6.10;99.90;;;;;;5062958;28;20710;-76
2022/01/05 01:48:42;;;;;;;6.93;6.63;;;6.10;99.90;;;;;;5062693;28;20222;-76
2022/01/05 01:51:09;;;;;;;7.33;6.93;;;6.10;99.90;;;;;;5062908;28;20195;-75
2022/01/05 01:53:36;;;;;;;7.60;7.20;;;6.10;99.90;;;;;;5061532;28;20215;-76
2022/01/05 01:56:06;;;;;;;7.20;6.67;;;6.10;99.90;;;;;;5061595;28;20202;-76
2022/01/05 01:58:35;;;;;;;7.50;7.10;;;6.20;99.90;;;;;;5058900;28;20184;-76
2022/01/05 02:01:02;;;;;;;7.43;7.03;;;6.20;99.90;;;;;;5066287;28;20195;-76
2022/01/05 02:03:29;;;;;;;7.17;6.77;;;6.10;99.90;;;;;;5065975;28;20218;-76
2022/01/05 02:05:57;;;;;;;7.07;6.70;;;6.10;99.90;;;;;;5058706;28;20278;-76
2022/01/05 02:08:24;;;;;;;7.73;7.33;;;6.10;99.90;;;;;;5061040;28;20211;-76
2022/01/05 02:10:52;;;;;;;7.90;7.50;;;6.20;99.90;;;;;;5061447;28;20649;-76
2022/01/05 02:13:20;;;;;;;7.73;7.23;;;6.20;99.90;;;;;;5064870;28;20214;-76
2022/01/05 02:15:47;;;;;;;7.90;7.30;;;6.20;99.90;;;;;;5061077;28;20202;-76
2022/01/05 02:18:58;;;;;;;10.03;9.33;;;6.20;99.90;;;;;;5057377;28;20195;-76
2022/01/05 02:21:13;;;;;;;11.40;10.80;;;6.20;99.90;;;;;;5060608;28;20735;-76
2022/01/05 02:23:41;;;;;;;11.90;11.30;;;6.10;99.90;;;;;;5061363;28;20218;-76
2022/01/05 02:26:11;;;;;;;11.37;10.77;;;6.20;99.90;;;;;;5063738;28;20236;-76
2022/01/05 02:28:37;;;;;;;11.53;10.83;;;6.20;99.90;;;;;;5055962;28;20561;-76
2022/01/05 02:31:04;;;;;;;11.80;11.20;;;6.20;99.90;;;;;;5062326;28;20199;-76
2022/01/05 02:33:32;;;;;;;10.00;9.40;;;6.20;99.90;;;;;;5064327;28;20219;-76
2022/01/05 02:35:59;;;;;;;9.47;8.97;;;6.20;99.90;;;;;;5060369;28;20265;-75
2022/01/05 02:38:30;;;;;;;8.97;8.47;;;6.30;99.90;;;;;;5062873;28;20199;-76
2022/01/05 02:40:57;;;;;;;7.70;7.30;;;6.20;99.90;;;;;;5061392;28;20194;-76
2022/01/05 02:43:24;;;;;;;7.00;6.63;;;6.20;99.90;;;;;;5059615;28;20600;-76
2022/01/05 02:45:51;;;;;;;7.23;6.83;;;6.20;99.90;;;;;;5053675;28;20646;-76
2022/01/05 02:48:18;;;;;;;7.60;7.20;;;6.20;99.90;;;;;;5069326;28;20264;-75
2022/01/05 02:50:45;;;;;;;6.00;5.70;;;6.30;99.90;;;;;;5053635;28;20203;-76
2022/01/05 02:53:12;;;;;;;6.50;6.20;;;6.30;99.90;;;;;;5058244;28;20238;-76
2022/01/05 02:55:40;;;;;;;6.50;6.10;;;6.30;99.90;;;;;;5060156;28;20187;-76
2022/01/05 02:58:07;;;;;;;6.67;6.37;;;6.30;99.90;;;;;;5060086;28;20187;-77
2022/01/05 03:00:34;;;;;;;8.13;7.73;;;6.30;99.90;;;;;;5057168;28;20656;-76
2022/01/05 03:03:01;;;;;;;9.50;9.00;;;6.30;99.90;;;;;;5061423;28;20223;-76
2022/01/05 03:05:28;;;;;;;8.40;8.00;;;6.20;99.90;;;;;;5053352;28;20184;-76
2022/01/05 03:07:54;;;;;;;9.60;9.10;;;6.30;99.90;;;;;;5060015;28;20208;-76
2022/01/05 03:10:21;;;;;;;8.90;8.37;;;6.30;99.90;;;;;;5055830;28;20691;-76
2022/01/05 03:12:50;;;;;;;6.47;6.17;;;6.30;99.90;;;;;;5058390;28;20216;-76
2022/01/05 03:15:17;;;;;;;6.70;6.40;;;6.30;99.90;;;;;;5064138;28;20199;-76
2022/01/05 03:17:44;;;;;;;10.77;10.20;;;6.30;99.90;;;;;;5055471;28;20204;-76
2022/01/05 03:20:12;;;;;;;12.70;12.00;;;6.30;99.90;;;;;;5061209;28;20195;-76
2022/01/05 03:22:40;;;;;;;11.00;10.40;;;6.30;99.90;;;;;;5058224;28;20215;-76
2022/01/05 03:25:15;;;;;;;10.93;10.33;;;6.20;99.90;;;;;;5061771;28;20574;-76
2022/01/05 03:27:42;;;;;;;11.10;10.50;;;6.20;99.90;;;;;;5061832;28;20209;-76
2022/01/05 03:30:12;;;;;;;10.77;10.27;;;6.20;99.90;;;;;;5061140;28;20196;-76
2022/01/05 03:32:50;;;;;;;10.50;9.90;;;6.20;99.90;;;;;;5057675;28;20218;-76
2022/01/05 03:35:17;;;;;;;12.80;12.10;;;6.20;99.90;;;;;;5055984;28;20616;-76
2022/01/05 03:37:44;;;;;;;12.07;11.47;;;6.20;99.90;;;;;;5060741;28;20202;-79
2022/01/05 03:40:12;;;;;;;8.10;7.70;;;6.10;99.90;;;;;;5057042;28;20202;-80
2022/01/05 03:42:39;;;;;;;11.03;10.50;;;6.10;99.90;;;;;;5048307;28;20217;-79
2022/01/05 03:45:07;;;;;;;12.20;11.60;;;6.10;99.90;;;;;;5058994;28;20336;-79
2022/01/05 03:47:35;;;;;;;13.30;12.60;;;6.10;99.90;;;;;;5066704;28;20205;-80
2022/01/05 03:50:02;;;;;;;13.30;12.60;;;6.00;99.90;;;;;;5059178;28;20216;-80
2022/01/05 03:52:29;;;;;;;12.37;11.77;;;6.00;99.90;;;;;;5051780;28;20242;-81
2022/01/05 03:54:56;;;;;;;12.40;11.80;;;6.00;99.90;;;;;;5063406;28;20218;-80
2022/01/05 03:57:24;;;;;;;12.10;11.50;;;6.00;99.90;;;;;;5060610;28;20265;-81
2022/01/05 03:59:51;;;;;;;12.30;11.70;;;5.90;99.90;;;;;;5059191;28;20627;-81
2022/01/05 04:02:18;;;;;;;13.30;12.60;;;5.90;99.90;;;;;;5055427;28;20192;-82
2022/01/05 04:04:47;;;;;;;12.50;11.80;;;5.80;99.90;;;;;;5061660;28;20827;-79
2022/01/05 04:07:13;;;;;;;12.50;11.90;;;5.80;99.90;;;;;;5058396;28;20199;-79
2022/01/05 04:09:40;;;;;;;13.10;12.30;;;5.80;99.90;;;;;;5052086;28;20226;-80
2022/01/05 04:12:08;;;;;;;13.20;12.50;;;5.80;99.90;;;;;;5070632;28;20204;-79
2022/01/05 04:14:35;;;;;;;2.70;2.50;;;5.80;99.90;;;;;;5055228;28;20237;-81
2022/01/05 04:17:02;;;;;;;3.37;3.17;;;5.80;99.90;;;;;;5066185;28;20191;-80
2022/01/05 04:19:31;;;;;;;2.70;2.60;;;5.70;99.90;;;;;;5045957;28;20187;-79
2022/01/05 04:21:59;;;;;;;2.60;2.50;;;5.70;99.90;;;;;;5059195;28;20201;-81
2022/01/05 04:24:26;;;;;;;3.27;3.07;;;5.70;99.90;;;;;;5066170;28;20230;-77
2022/01/05 04:26:53;;;;;;;2.83;2.63;;;5.70;99.90;;;;;;5063196;28;20187;-77
2022/01/05 04:29:20;;;;;;;2.63;2.53;;;5.60;99.90;;;;;;5056836;28;20203;-77
2022/01/05 04:31:47;;;;;;;7.63;7.23;;;5.60;99.90;;;;;;5056867;28;20198;-77
2022/01/05 04:34:14;;;;;;;12.80;12.20;;;5.50;99.90;;;;;;5048808;28;20235;-77
2022/01/05 04:36:41;;;;;;;7.83;7.43;;;5.60;99.90;;;;;;5063423;28;20201;-77
2022/01/05 04:39:09;;;;;;;4.93;4.73;;;5.50;99.90;;;;;;5069959;28;20202;-77
2022/01/05 04:41:39;;;;;;;4.40;4.20;;;5.50;99.90;;;;;;5045571;28;20219;-77
2022/01/05 04:44:06;;;;;;;4.00;3.80;;;5.50;99.90;;;;;;5053434;28;20227;-77
2022/01/05 04:46:32;;;;;;;3.47;3.27;;;5.50;99.90;;;;;;5053729;28;20195;-77
2022/01/05 04:48:59;;;;;;;3.30;3.20;;;5.50;99.90;;;;;;5059827;28;20635;-77
2022/01/05 04:51:26;;;;;;;3.13;3.03;;;5.50;99.90;;;;;;5060010;28;20195;-77
2022/01/05 04:53:53;;;;;;;3.30;3.20;;;5.50;99.90;;;;;;5063465;28;20211;-76
2022/01/05 04:56:21;;;;;;;9.97;9.47;;;5.50;99.90;;;;;;5059686;28;20550;-76
2022/01/05 04:58:48;;;;;;;8.87;8.47;;;5.50;99.90;;;;;;5051825;28;20187;-77
2022/01/05 05:01:15;;;;;;;8.90;8.40;;;5.50;99.90;;;;;;5061480;28;20244;-77
2022/01/05 05:03:42;;;;;;;12.13;11.53;;;5.50;99.90;;;;;;5050223;28;20229;-77
2022/01/05 05:06:09;;;;;;;12.47;11.87;;;5.50;99.90;;;;;;5064505;28;20202;-77
2022/01/05 05:08:36;;;;;;;12.50;11.90;;;5.50;99.90;;;;;;5055543;28;20222;-77
2022/01/05 05:11:03;;;;;;;13.53;12.83;;;5.50;99.90;;;;;;5062283;28;20203;-77
2022/01/05 05:13:31;;;;;;;13.20;12.50;;;5.50;99.90;;;;;;5060410;28;20207;-77
2022/01/05 05:15:58;;;;;;;4.60;4.40;;;5.50;99.90;;;;;;5063987;28;20206;-76
2022/01/05 05:18:24;;;;;;;12.57;11.97;;;5.50;99.90;;;;;;5058065;28;20217;-76
2022/01/05 05:20:52;;;;;;;12.40;11.80;;;5.50;99.90;;;;;;5051058;28;20211;-75
2022/01/05 05:23:18;;;;;;;12.47;11.87;;;5.50;99.90;;;;;;5065361;28;20222;-76
2022/01/05 05:25:45;;;;;;;12.27;11.67;;;5.50;99.90;;;;;;5056017;28;20196;-77
2022/01/05 05:28:12;;;;;;;12.50;11.90;;;5.50;99.90;;;;;;5064788;28;20206;-76
2022/01/05 05:30:40;;;;;;;12.20;11.60;;;5.50;99.90;;;;;;5066715;28;20694;-77
2022/01/05 05:33:07;;;;;;;11.70;11.10;;;5.40;99.90;;;;;;5063504;28;20223;-78
2022/01/05 05:35:34;;;;;;;12.00;11.40;;;5.40;99.90;;;;;;5056159;28;20221;-78
2022/01/05 05:38:02;;;;;;;11.97;11.27;;;5.40;99.90;;;;;;5070040;28;20195;-75
2022/01/05 05:40:29;;;;;;;12.33;11.70;;;5.40;99.90;;;;;;5054648;28;20566;-76
2022/01/05 05:42:56;;;;;;;12.30;11.70;;;5.40;99.90;;;;;;5061299;28;20215;-77
2022/01/05 05:45:23;;;;;;;12.10;11.50;;;5.30;99.90;;;;;;5066615;28;20203;-76
2022/01/05 05:47:51;;;;;;;12.20;11.60;;;5.30;99.90;;;;;;5065439;28;20201;-77
2022/01/05 05:50:18;;;;;;;12.27;11.67;;;5.20;99.90;;;;;;5067265;28;20219;-76
2022/01/05 05:52:45;;;;;;;12.40;11.80;;;5.20;99.90;;;;;;5063132;28;20229;-77
2022/01/05 05:55:12;;;;;;;12.50;11.90;;;5.20;99.90;;;;;;5063819;28;20199;-77
2022/01/05 05:57:38;;;;;;;13.00;12.30;;;5.10;99.90;;;;;;5060680;28;20202;-76
2022/01/05 06:00:10;;;;;;;13.33;12.63;;;5.10;99.90;;;;;;5072806;28;20218;-77
2022/01/05 06:02:38;;;;;;;12.60;12.00;;;5.10;99.90;;;;;;5054425;28;20306;-77
2022/01/05 06:05:07;;;;;;;12.70;12.10;;;5.00;99.90;;;;;;5066033;28;20261;-77
2022/01/05 06:07:34;;;;;;;12.10;11.50;;;5.00;99.90;;;;;;5069231;28;20194;-77
2022/01/05 06:10:01;;;;;;;12.83;12.23;;;5.00;99.90;;;;;;5064488;28;20210;-77
2022/01/05 06:12:28;;;;;;;13.80;13.10;;;4.90;99.90;;;;;;5051798;28;20207;-76
2022/01/05 06:14:56;;;;;;;12.53;11.90;;;4.90;99.90;;;;;;5062275;28;20182;-77
2022/01/05 06:17:23;;;;;;;13.70;13.00;;;4.90;99.90;;;;;;5058944;28;20206;-77
2022/01/05 06:19:50;;;;;;;13.70;13.00;;;4.90;99.90;;;;;;5068477;28;20245;-76
2022/01/05 06:22:18;;;;;;;12.80;12.20;;;4.90;99.90;;;;;;5065439;28;20210;-77
2022/01/05 06:24:45;;;;;;;11.40;10.80;;;4.90;99.90;;;;;;5059615;28;20202;-77
2022/01/05 06:27:12;;;;;;;10.20;9.70;;;4.90;99.90;;;;;;5065867;28;20667;-77
2022/01/05 06:29:40;;;;;;;11.13;10.53;;;4.70;99.90;;;;;;5060856;28;20298;-77
2022/01/05 06:32:08;;;;;;;10.60;10.00;;;4.50;99.90;;;;;;5059048;28;20442;-78
2022/01/05 06:34:35;;;;;;;11.30;10.70;;;4.20;99.90;;;;;;5051719;28;20194;-77
2022/01/05 06:37:02;;;;;;;12.80;11.93;;;4.10;99.90;;;;;;5064002;28;20195;-76
2022/01/05 06:39:30;;;;;;;13.53;12.83;;;3.90;99.90;;;;;;5037311;28;20657;-76
2022/01/05 06:41:57;;;;;;;13.53;12.83;;;3.80;99.90;;;;;;5060254;28;20199;-77
2022/01/05 06:44:24;;;;;;;13.30;12.60;;;3.80;99.90;;;;;;5081735;28;20223;-78
2022/01/05 06:46:51;;;;;;;13.70;13.00;;;3.80;99.90;;;;;;5064518;28;20199;-77
2022/01/05 06:49:19;;;;;;;13.50;12.80;;;3.70;99.90;;;;;;5054735;28;20242;-77
2022/01/05 06:51:45;;;;;;;13.87;13.00;;;3.70;99.90;;;;;;5052726;28;20191;-76
2022/01/05 06:54:12;;;;;;;13.97;13.10;;;3.70;99.90;;;;;;5056379;28;20215;-76
2022/01/05 06:56:41;;;;;;;13.97;13.23;;;3.70;99.90;;;;;;5061764;28;20195;-76
2022/01/05 06:59:07;;;;;;;13.60;12.90;;;3.70;99.90;;;;;;5068296;28;20276;-76
2022/01/05 07:01:34;;;;;;;13.67;12.90;;;3.70;99.90;;;;;;5059798;28;20537;-76
2022/01/05 07:04:02;;;;;;;13.67;12.97;;;3.80;99.90;;;;;;5059061;28;20219;-76
2022/01/05 07:06:29;;;;;;;14.00;13.20;;;3.80;99.90;;;;;;5074553;28;20207;-76
2022/01/05 07:08:56;;;;;;;13.70;13.00;;;3.80;99.90;;;;;;5063803;28;20240;-76
2022/01/05 07:11:23;;;;;;;14.17;13.30;;;3.80;99.90;;;;;;5061481;28;20211;-76
2022/01/05 07:13:51;;;;;;;13.60;12.90;;;3.80;99.90;;;;;;5055354;28;20731;-76
2022/01/05 07:16:18;;;;;;;13.67;12.87;;;3.80;99.90;;;;;;5065322;28;20199;-78
2022/01/05 07:18:45;;;;;;;13.30;12.60;;;3.90;99.90;;;;;;5040966;28;21073;-76
2022/01/05 07:21:12;;;;;;;13.63;12.93;;;3.80;99.90;;;;;;5068169;28;20209;-77
2022/01/05 07:23:38;;;;;;;13.80;12.97;;;3.90;99.90;;;;;;5049870;28;20229;-76
2022/01/05 07:26:05;;;;;;;13.40;12.70;;;3.90;99.90;;;;;;5061306;28;20198;-76
2022/01/05 07:28:32;;;;;;;13.80;13.00;;;3.90;99.90;;;;;;5059167;28;20194;-75
2022/01/05 07:31:00;;;;;;;13.67;12.97;;;3.90;99.90;;;;;;5061614;28;20203;-76
2022/01/05 07:33:28;;;;;;;13.50;12.80;;;3.90;99.90;;;;;;5060966;28;20276;-76
2022/01/05 07:35:55;;;;;;;13.70;13.00;;;3.90;99.90;;;;;;5058401;28;20729;-76
2022/01/05 07:38:22;;;;;;;13.60;12.90;;;3.90;99.90;;;;;;5055449;28;20563;-76
2022/01/05 07:40:49;;;;;;;13.50;12.70;;;4.00;99.90;;;;;;5053114;28;20191;-75
2022/01/05 07:43:16;;;;;;;13.50;12.80;;;4.00;99.90;;;;;;5055303;28;20265;-76
2022/01/05 07:45:43;;;;;;;14.23;13.43;;;3.90;99.90;;;;;;5064321;28;20277;-76
2022/01/05 07:48:11;;;;;;;13.80;13.10;;;3.90;99.90;;;;;;5061760;28;20199;-75
2022/01/05 07:50:38;;;;;;;13.70;13.00;;;3.90;99.90;;;;;;5058257;28;20221;-76
2022/01/05 07:53:05;;;;;;;13.63;12.73;;;3.80;99.90;;;;;;5055184;28;20600;-75
2022/01/05 07:55:31;;;;;;;13.47;12.77;;;3.80;99.90;;;;;;5055273;28;20187;-76
2022/01/05 07:57:59;;;;;;;13.53;12.83;;;3.70;99.90;;;;;;5048837;28;20196;-75
2022/01/05 08:00:26;;;;;;;13.90;13.20;;;3.80;99.90;;;;;;5054698;28;20196;-75
2022/01/05 08:02:53;;;;;;;13.50;12.80;;;3.70;99.90;;;;;;5054136;28;20233;-77
2022/01/05 08:05:22;;;;;;;14.40;13.60;;;3.70;99.90;;;;;;5043807;28;20680;-77
2022/01/05 08:07:49;;;;;;;14.50;13.60;;;3.60;99.90;;;;;;5047648;28;20203;-76
2022/01/05 08:10:16;;;;;;;13.80;13.00;;;3.50;99.90;;;;;;5060052;28;20207;-76
2022/01/05 08:12:43;;;;;;;13.50;12.80;;;3.50;99.90;;;;;;5056412;28;20226;-76
2022/01/05 08:15:10;;;;;;;13.77;13.03;;;3.50;99.90;;;;;;5058081;28;20249;-76
2022/01/05 08:17:38;;;;;;;13.70;13.00;;;3.50;99.90;;;;;;5052938;28;20671;-77
2022/01/05 08:20:06;;;;;;;13.97;13.17;;;3.50;99.90;;;;;;5050828;28;20442;-75
2022/01/05 08:22:34;;;;;;;13.80;13.10;;;3.40;99.90;;;;;;5059530;28;20210;-76
2022/01/05 08:25:01;;;;;;;14.30;13.30;;;3.40;99.90;;;;;;5049411;28;20660;-76
2022/01/05 08:27:28;;;;;;;14.13;13.40;;;3.40;99.90;;;;;;5066933;28;20202;-76
2022/01/05 08:29:55;;;;;;;14.20;13.40;;;3.40;99.90;;;;;;5066007;28;20483;-76
2022/01/05 08:32:22;;;;;;;14.07;13.10;;;3.40;99.90;;;;;;5059595;28;20459;-76
2022/01/05 08:34:49;;;;;;;14.50;13.60;;;3.40;99.90;;;;;;5064593;28;20201;-76
2022/01/05 08:37:16;;;;;;;13.80;13.00;;;3.40;99.90;;;;;;5060008;28;20195;-77
2022/01/05 08:39:45;;;;;;;13.83;12.90;;;3.40;99.90;;;;;;5059056;28;20196;-76
2022/01/05 08:42:12;;;;;;;14.30;13.40;;;3.50;99.90;;;;;;5059088;28;21005;-76
2022/01/05 08:44:38;;;;;;;13.77;12.80;;;3.50;99.90;;;;;;5055328;28;20198;-76
2022/01/05 08:47:07;;;;;;;13.77;12.70;;;3.60;99.90;;;;;;5057618;28;20198;-76
2022/01/05 08:49:34;;;;;;;13.47;12.53;;;3.60;99.90;;;;;;5058889;28;20269;-76
2022/01/05 08:52:01;;;;;;;13.70;12.80;;;3.60;99.90;;;;;;5055969;28;20199;-76
2022/01/05 08:54:28;;;;;;;13.73;12.97;;;3.50;99.90;;;;;;5053737;28;20621;-76
2022/01/05 08:56:56;;;;;;;13.70;12.90;;;3.50;99.90;;;;;;5058206;28;20722;-76
2022/01/05 08:59:23;;;;;;;14.23;13.33;;;3.40;99.90;;;;;;5064808;28;20214;-77
2022/01/05 09:01:52;;;;;;;13.33;12.53;;;3.40;99.90;;;;;;5059538;28;20194;-76
2022/01/05 09:04:19;;;;;;;13.60;12.60;;;3.50;99.90;;;;;;5068894;28;20300;-78
2022/01/05 09:06:45;;;;;;;13.40;12.60;;;3.80;99.90;;;;;;5054611;28;20540;-77
2022/01/05 09:09:12;;;;;;;13.83;12.90;;;4.10;99.90;;;;;;5059716;28;20198;-77
2022/01/05 09:11:39;;;;;;;14.07;12.93;;;4.20;99.90;;;;;;5058558;28;20488;-77
2022/01/05 09:14:07;;;;;;;13.37;12.47;;;4.20;99.90;;;;;;5056706;28;20226;-75
2022/01/05 09:16:34;;;;;;;12.83;12.03;;;4.10;99.90;;;;;;5052669;28;20702;-76
2022/01/05 09:19:03;;;;;;;13.67;12.73;;;4.00;99.90;;;;;;5051514;28;20231;-76
2022/01/05 09:21:30;;;;;;;13.43;12.47;;;4.00;99.90;;;;;;5054248;28;20429;-75
2022/01/05 09:23:56;;;;;;;13.00;11.90;;;3.90;99.90;;;;;;5047160;28;20226;-75
2022/01/05 09:26:24;;;;;;;13.33;12.33;;;3.80;99.90;;;;;;5056737;28;20205;-75
2022/01/05 09:28:51;;;;;;;12.53;11.73;;;3.90;99.90;;;;;;5064681;28;20187;-75
2022/01/05 09:31:19;;;;;;;13.30;12.30;;;3.90;99.90;;;;;;5052123;28;20430;-75
2022/01/05 09:33:46;;;;;;;13.00;12.07;;;3.80;99.90;;;;;;5055561;28;20218;-75
2022/01/05 09:36:17;;;;;;;13.00;12.10;;;3.90;99.90;;;;;;5056469;28;20191;-75
2022/01/05 09:41:59;;;;;;;12.50;11.70;;;3.90;99.90;;;;;;4977989;28;20200;-75
2022/01/05 09:44:28;;;;;;;12.80;12.00;;;3.90;99.90;;;;;;5038523;28;20317;-75
2022/01/05 09:47:32;;;;;;;12.30;11.50;;;4.00;99.90;;;;;;5055564;28;20656;-75
2022/01/05 09:50:01;;;;;;;12.33;11.63;;;4.10;99.90;;;;;;5054851;28;20211;-76
2022/01/05 09:52:29;;;;;;;12.60;11.70;;;4.10;99.90;;;;;;5052377;28;20225;-75
2022/01/05 09:54:56;;;;;;;12.40;11.60;;;3.90;99.90;;;;;;5058066;28;20199;-76
2022/01/05 09:57:24;;;;;;;13.40;12.60;;;3.80;99.90;;;;;;5061137;28;20210;-75
2022/01/05 09:59:52;;;;;;;12.40;11.60;;;3.70;99.90;;;;;;5057501;28;20191;-76
2022/01/05 10:02:21;;;;;;;12.40;11.57;;;3.70;99.90;;;;;;5059842;28;20641;-75
2022/01/05 10:04:48;;;;;;;11.90;11.20;;;3.70;99.90;;;;;;5054854;28;20437;-75
2022/01/05 10:07:16;;;;;;;13.50;12.40;;;3.50;99.90;;;;;;5053903;28;20210;-76
2022/01/05 10:09:45;;;;;;;12.70;11.80;;;3.40;99.90;;;;;;5057492;28;20214;-76
2022/01/05 10:12:14;;;;;;;13.13;12.23;;;3.40;99.90;;;;;;5059177;28;20187;-76
2022/01/05 10:14:42;;;;;;;13.03;12.03;;;3.40;99.90;;;;;;5053655;28;20780;-75
2022/01/05 10:17:12;;;;;;;12.33;11.47;;;3.40;99.90;;;;;;5059752;28;20531;-75
2022/01/05 10:19:42;;;;;;;12.20;11.40;;;3.50;99.90;;;;;;5063599;28;21056;-75
2022/01/05 10:22:28;;;;;;;12.53;11.80;;;3.70;99.90;;;;;;5064969;28;20464;-75
2022/01/05 10:24:56;;;;;;;12.20;11.30;;;3.80;99.90;;;;;;5064756;28;20448;-75
2022/01/05 10:27:25;;;;;;;12.27;11.33;;;3.90;99.90;;;;;;5057506;28;20957;-75
2022/01/05 10:29:54;;;;;;;12.40;11.43;;;4.10;99.90;;;;;;5056015;28;20433;-75
2022/01/05 10:32:21;;;;;;;12.20;11.20;;;4.10;99.90;;;;;;5060027;28;20207;-76
2022/01/05 10:35:06;;;;;;;12.80;11.60;;;4.30;99.90;;;;;;5058903;28;20195;-75
2022/01/05 10:37:34;;;;;;;11.90;11.10;;;4.40;99.90;;;;;;5052858;28;20194;-75
2022/01/05 10:40:10;;;;;;;12.83;11.60;;;4.50;99.90;;;;;;5058076;28;20217;-76
2022/01/05 10:42:38;;;;;;;11.70;10.90;;;4.50;99.90;;;;;;5056392;28;20301;-76
2022/01/05 10:45:06;;;;;;;12.13;11.23;;;4.60;99.90;;;;;;5059337;28;20203;-75
2022/01/05 10:47:33;;;;;;;12.40;11.37;;;4.50;99.90;;;;;;5071793;28;20200;-77
2022/01/05 10:50:02;;;;;;;12.03;11.03;;;4.40;99.90;;;;;;5052896;28;20199;-76
2022/01/05 10:52:30;;;;;;;12.23;11.40;;;4.30;99.90;;;;;;5048025;28;20244;-76
2022/01/05 10:55:08;;;;;;;11.87;10.87;;;4.30;99.90;;;;;;5055515;28;20656;-76
2022/01/05 10:57:35;;;;;;;12.10;11.00;;;4.20;99.90;;;;;;5045719;28;20199;-76
2022/01/05 11:00:05;;;;;;;11.77;10.87;;;4.20;99.90;;;;;;5058932;28;20234;-77
2022/01/05 11:02:34;;;;;;;12.27;11.10;;;4.20;99.90;;;;;;5045221;28;20227;-76
2022/01/05 11:05:15;;;;;;;11.47;10.70;;;4.10;99.90;;;;;;5055699;28;20195;-76
2022/01/05 11:07:46;;;;;;;11.20;10.33;;;4.10;99.90;;;;;;5055495;28;20672;-76
2022/01/05 11:10:16;;;;;;;11.53;10.70;;;4.10;99.90;;;;;;5055542;28;20203;-76
2022/01/05 11:12:44;;;;;;;11.70;10.60;;;4.00;99.90;;;;;;5066720;28;20221;-76
2022/01/05 11:15:22;;;;;;;12.20;11.40;;;4.10;99.90;;;;;;5060905;28;20202;-76
2022/01/05 11:18:11;;;;;;;11.30;10.40;;;4.10;99.90;;;;;;5057082;28;20190;-75
2022/01/05 11:20:42;;;;;;;10.87;10.17;;;4.00;99.90;;;;;;5040764;28;20711;-75
2022/01/05 11:23:09;;;;;;;11.63;10.50;;;3.90;99.90;;;;;;5065331;28;20248;-76
2022/01/05 11:25:37;;;;;;;12.10;11.20;;;3.90;99.90;;;;;;5057606;28;20206;-79
2022/01/05 11:28:05;;;;;;;11.90;11.00;;;3.90;99.90;;;;;;5055709;28;20256;-78
2022/01/05 11:30:34;;;;;;;11.03;10.13;;;3.80;99.90;;;;;;5058604;28;21180;-78
2022/01/05 11:33:04;;;;;;;11.30;10.40;;;3.80;99.90;;;;;;5062606;28;20215;-78
2022/01/05 11:35:32;;;;;;;12.03;10.67;;;3.80;99.90;;;;;;5044003;28;20196;-80
2022/01/05 11:38:00;;;;;;;12.73;11.53;;;3.80;99.90;;;;;;5048713;28;20204;-76
2022/01/05 11:40:29;;;;;;;12.13;11.10;;;3.80;99.90;;;;;;5043554;28;20203;-76
2022/01/05 11:43:02;;;;;;;12.10;11.00;;;3.70;99.90;;;;;;5057782;28;20224;-77
2022/01/05 11:45:45;;;;;;;11.63;10.73;;;3.70;99.90;;;;;;5048171;28;20735;-77
2022/01/05 11:48:18;;;;;;;12.43;11.13;;;3.70;99.90;;;;;;5060411;28;20278;-76
2022/01/05 11:50:48;;;;;;;12.57;11.60;;;3.60;99.90;;;;;;5052011;28;20466;-77
2022/01/05 11:53:17;;;;;;;13.67;12.40;;;3.50;99.90;;;;;;5060685;28;20453;-77
2022/01/05 11:56:18;;;;;;;14.07;12.30;;;3.40;99.90;;;;;;5061176;28;20205;-78
2022/01/05 11:58:54;;;;;;;12.43;11.37;;;3.40;99.90;;;;;;5002890;28;20200;-77
2022/01/05 12:01:33;;;;;;;12.80;11.90;;;3.50;99.90;;;;;;4991990;28;20235;-76
2022/01/05 12:04:05;;;;;;;13.33;12.33;;;3.70;99.90;;;;;;5033041;28;20241;-77
2022/01/05 12:06:33;;;;;;;15.40;12.23;;;3.80;99.90;;;;;;5050098;28;20255;-77
2022/01/05 12:09:06;;;;;;;12.90;11.90;;;4.00;99.90;;;;;;5052707;28;20668;-77
2022/01/05 12:11:35;;;;;;;12.60;11.80;;;4.10;99.90;;;;;;5049730;28;20470;-77
2022/01/05 12:14:03;;;;;;;13.20;12.00;;;4.20;99.90;;;;;;5076691;28;20221;-77
2022/01/05 12:16:50;;;;;;;12.03;10.90;;;4.30;99.90;;;;;;5056562;28;20202;-77
2022/01/05 12:19:17;;;;;;;13.53;11.23;;;4.40;99.90;;;;;;5075050;28;20202;-77
2022/01/05 12:21:47;;;;;;;12.33;11.23;;;4.50;99.90;;;;;;5059384;28;20197;-77
2022/01/05 12:24:16;;;;;;;12.23;11.13;;;4.50;99.90;;;;;;5057980;28;20219;-77
2022/01/05 12:26:44;;;;;;;12.10;11.30;;;4.50;99.90;;;;;;5056069;28;20234;-77
2022/01/05 12:29:11;;;;;;;12.43;11.40;;;4.50;99.90;;;;;;5062372;28;20245;-76
2022/01/05 12:32:00;;;;;;;11.17;10.00;;;4.50;99.90;;;;;;5054902;28;20225;-77
2022/01/05 12:34:55;;;;;;;10.90;10.00;;;4.60;99.90;;;;;;5046467;28;20234;-77
2022/01/05 12:37:46;;;;;;;12.00;10.07;;;4.70;99.90;;;;;;5063463;28;20200;-76
2022/01/05 12:40:33;;;;;;;11.87;10.77;;;4.60;99.90;;;;;;5058577;28;20206;-77
2022/01/05 12:43:35;;;;;;;11.30;10.20;;;4.60;99.90;;;;;;5060133;28;20242;-77
2022/01/05 12:46:05;;;;;;;11.27;10.43;;;4.60;99.90;;;;;;5056875;28;20278;-77
2022/01/05 12:49:03;;;;;;;12.60;11.17;;;4.50;99.90;;;;;;5050331;28;20623;-76
2022/01/05 12:51:41;;;;;;;12.60;11.43;;;4.40;99.90;;;;;;5060696;28;20590;-77